createdAt,value
2023-01-15T00:01:53.316Z,118.99
2023-01-15T00:04:20.061Z,118.99
2023-01-15T00:06:46.761Z,118.99
2023-01-15T00:09:15.446Z,118.99
2023-01-15T00:11:42.574Z,118.99
2023-01-15T00:14:09.448Z,118.99
2023-01-15T00:16:36.370Z,118.99
2023-01-15T00:19:04.493Z,118.99
2023-01-15T00:21:31.796Z,118.99
2023-01-15T00:24:16.990Z,118.99
2023-01-15T00:27:03.071Z,118.99
2023-01-15T00:29:30.114Z,118.99
2023-01-15T00:31:59.620Z,118.99
2023-01-15T00:34:26.991Z,118.99
2023-01-15T00:36:53.948Z,118.99
2023-01-15T00:39:20.985Z,118.99
2023-01-15T00:41:48.229Z,118.99
2023-01-15T00:44:15.273Z,118.99
2023-01-15T00:46:42.294Z,118.99
2023-01-15T00:49:09.950Z,118.99
2023-01-15T00:51:36.703Z,118.99
2023-01-15T00:54:04.149Z,118.99
2023-01-15T00:56:30.860Z,118.99
2023-01-15T00:58:57.804Z,118.99
2023-01-15T01:01:24.939Z,118.99
2023-01-15T01:03:53.025Z,118.99
2023-01-15T01:06:21.046Z,118.99
2023-01-15T01:08:48.739Z,118.99
2023-01-15T01:11:18.704Z,118.99
2023-01-15T01:13:46.594Z,118.99
2023-01-15T01:16:22.666Z,118.99
2023-01-15T01:18:49.446Z,118.99
2023-01-15T01:21:16.363Z,118.99
2023-01-15T01:23:43.561Z,118.99
2023-01-15T01:26:10.491Z,118.99
2023-01-15T01:28:37.246Z,118.99
2023-01-15T01:31:08.335Z,118.99
2023-01-15T01:33:35.728Z,118.99
2023-01-15T01:36:02.868Z,118.99
2023-01-15T01:38:29.562Z,118.99
2023-01-15T01:40:56.427Z,118.99
2023-01-15T01:43:26.780Z,118.99
2023-01-15T01:45:53.834Z,118.99
2023-01-15T01:48:29.192Z,118.99
2023-01-15T01:51:00.255Z,118.99
2023-01-15T01:53:29.985Z,118.99
2023-01-15T01:55:58.575Z,118.11
2023-01-15T01:58:30.026Z,117.79
2023-01-15T02:00:57.631Z,116.63
2023-01-15T02:03:35.248Z,117.28
2023-01-15T02:06:05.448Z,117.61
2023-01-15T02:08:32.849Z,117.99
2023-01-15T02:10:59.958Z,117.97
2023-01-15T02:13:40.015Z,117.31
2023-01-15T02:16:19.899Z,116.10
2023-01-15T02:18:55.467Z,116.00
2023-01-15T02:21:25.127Z,115.22
2023-01-15T02:24:07.097Z,115.33
2023-01-15T02:27:05.047Z,114.46
2023-01-15T02:29:55.101Z,114.42
2023-01-15T02:33:03.466Z,113.83
2023-01-15T02:35:40.107Z,114.00
2023-01-15T02:38:12.443Z,112.55
2023-01-15T02:40:42.897Z,113.60
2023-01-15T02:43:13.323Z,113.77
2023-01-15T02:45:43.528Z,114.14
2023-01-15T02:48:13.820Z,114.27
2023-01-15T02:50:45.487Z,112.65
2023-01-15T02:53:19.055Z,113.03
2023-01-15T02:55:49.303Z,112.62
2023-01-15T02:58:20.553Z,111.94
2023-01-15T03:00:50.240Z,111.99
2023-01-15T03:03:26.902Z,110.82
2023-01-15T03:06:10.902Z,111.88
2023-01-15T03:08:38.131Z,111.47
2023-01-15T03:11:15.317Z,111.29
2023-01-15T03:14:04.372Z,110.59
2023-01-15T03:16:53.968Z,111.63
2023-01-15T03:19:58.155Z,111.13
2023-01-15T03:22:34.078Z,111.14
2023-01-15T03:25:09.542Z,111.82
2023-01-15T03:27:36.319Z,111.44
2023-01-15T03:30:13.996Z,111.51
2023-01-15T03:32:41.163Z,111.26
2023-01-15T03:35:29.055Z,111.57
2023-01-15T03:37:55.812Z,111.86
2023-01-15T03:40:22.961Z,112.29
2023-01-15T03:43:23.014Z,111.56
2023-01-15T03:45:52.894Z,111.97
2023-01-15T03:48:32.395Z,111.81
2023-01-15T03:51:12.348Z,111.90
2023-01-15T03:53:54.597Z,112.13
2023-01-15T03:56:50.794Z,112.53
2023-01-15T03:59:22.647Z,112.42
2023-01-15T04:01:49.835Z,112.10
2023-01-15T04:04:17.841Z,112.02
2023-01-15T04:06:45.542Z,111.92
2023-01-15T04:09:14.521Z,112.29
2023-01-15T04:11:41.139Z,112.52
2023-01-15T04:14:07.912Z,112.67
2023-01-15T04:16:35.938Z,112.70
2023-01-15T04:19:02.671Z,113.46
2023-01-15T04:21:29.377Z,113.71
2023-01-15T04:23:56.123Z,114.06
2023-01-15T04:26:23.165Z,113.72
2023-01-15T04:28:50.053Z,113.81
2023-01-15T04:31:17.108Z,114.07
2023-01-15T04:33:43.914Z,114.73
2023-01-15T04:36:10.576Z,114.93
2023-01-15T04:38:40.593Z,115.49
2023-01-15T04:41:25.901Z,115.06
2023-01-15T04:44:07.729Z,115.17
2023-01-15T04:46:40.434Z,115.47
2023-01-15T04:49:16.177Z,114.80
2023-01-15T04:51:43.599Z,115.43
2023-01-15T04:54:12.409Z,115.12
2023-01-15T04:56:51.612Z,114.91
2023-01-15T04:59:21.693Z,114.96
2023-01-15T05:02:02.538Z,115.25
2023-01-15T05:04:30.624Z,115.12
2023-01-15T05:06:57.412Z,115.16
2023-01-15T05:09:24.127Z,115.36
2023-01-15T05:11:50.820Z,115.48
2023-01-15T05:14:17.519Z,115.52
2023-01-15T05:16:44.373Z,115.71
2023-01-15T05:19:11.316Z,115.57
2023-01-15T05:21:41.829Z,115.73
2023-01-15T05:24:09.155Z,115.77
2023-01-15T05:26:36.348Z,115.93
2023-01-15T05:29:03.610Z,116.38
2023-01-15T05:31:31.531Z,116.51
2023-01-15T05:33:59.216Z,116.53
2023-01-15T05:36:29.540Z,116.38
2023-01-15T05:38:59.783Z,116.64
2023-01-15T05:41:44.919Z,116.60
2023-01-15T05:44:13.396Z,116.66
2023-01-15T05:46:41.777Z,116.67
2023-01-15T05:49:12.486Z,115.81
2023-01-15T05:51:40.070Z,116.00
2023-01-15T05:54:08.566Z,116.44
2023-01-15T05:56:36.508Z,116.57
2023-01-15T05:59:03.618Z,116.12
2023-01-15T06:01:30.430Z,115.89
2023-01-15T06:04:01.858Z,115.46
2023-01-15T06:06:29.495Z,115.01
2023-01-15T06:08:56.709Z,115.15
2023-01-15T06:11:23.710Z,114.80
2023-01-15T06:13:51.126Z,114.43
2023-01-15T06:16:18.713Z,113.64
2023-01-15T06:18:46.113Z,114.08
2023-01-15T06:21:14.130Z,114.00
2023-01-15T06:23:41.658Z,114.03
2023-01-15T06:26:13.324Z,113.16
2023-01-15T06:28:40.608Z,112.94
2023-01-15T06:31:18.861Z,112.62
2023-01-15T06:33:45.621Z,112.84
2023-01-15T06:36:15.264Z,111.56
2023-01-15T06:38:42.766Z,112.26
2023-01-15T06:41:32.303Z,112.12
2023-01-15T06:44:17.813Z,111.20
2023-01-15T06:47:05.210Z,111.39
2023-01-15T06:49:33.387Z,111.15
2023-01-15T06:52:00.898Z,111.73
2023-01-15T06:54:28.031Z,111.58
2023-01-15T06:56:54.812Z,110.91
2023-01-15T06:59:21.591Z,110.82
2023-01-15T07:01:48.547Z,110.97
2023-01-15T07:04:16.070Z,110.97
2023-01-15T07:06:43.023Z,110.70
2023-01-15T07:09:09.648Z,111.10
2023-01-15T07:11:49.382Z,111.09
2023-01-15T07:14:21.634Z,111.19
2023-01-15T07:16:48.911Z,110.42
2023-01-15T07:19:15.889Z,110.57
2023-01-15T07:21:42.902Z,110.97
2023-01-15T07:24:10.787Z,110.76
2023-01-15T07:26:38.051Z,111.02
2023-01-15T07:29:05.723Z,111.10
2023-01-15T07:31:32.990Z,111.58
2023-01-15T07:33:59.865Z,111.80
2023-01-15T07:36:27.088Z,112.49
2023-01-15T07:38:54.055Z,111.95
2023-01-15T07:41:40.064Z,112.47
2023-01-15T07:44:28.486Z,113.26
2023-01-15T07:47:13.902Z,113.32
2023-01-15T07:49:45.989Z,113.51
2023-01-15T07:52:22.784Z,113.44
2023-01-15T07:54:50.462Z,113.73
2023-01-15T07:57:21.429Z,113.95
2023-01-15T07:59:49.065Z,114.09
2023-01-15T08:02:15.944Z,114.12
2023-01-15T08:04:42.723Z,114.35
2023-01-15T08:07:10.018Z,114.35
2023-01-15T08:09:37.017Z,114.38
2023-01-15T08:12:22.863Z,114.08
2023-01-15T08:15:08.683Z,114.56
2023-01-15T08:17:37.427Z,114.02
2023-01-15T08:20:07.108Z,114.41
2023-01-15T08:22:34.143Z,114.37
2023-01-15T08:25:00.904Z,113.90
2023-01-15T08:27:28.957Z,113.71
2023-01-15T08:29:56.728Z,113.35
2023-01-15T08:32:25.053Z,112.58
2023-01-15T08:34:52.124Z,112.43
2023-01-15T08:37:18.938Z,112.39
2023-01-15T08:39:46.164Z,112.03
2023-01-15T08:42:13.021Z,112.33
2023-01-15T08:44:39.900Z,112.48
2023-01-15T08:47:06.599Z,112.46
2023-01-15T08:49:33.829Z,111.90
2023-01-15T08:52:01.062Z,111.55
2023-01-15T08:54:28.025Z,112.06
2023-01-15T08:56:54.776Z,112.07
2023-01-15T08:59:22.449Z,112.05
2023-01-15T09:01:49.313Z,112.06
2023-01-15T09:04:18.143Z,112.02
2023-01-15T09:06:45.594Z,111.81
2023-01-15T09:09:12.907Z,111.87
2023-01-15T09:11:41.788Z,111.69
2023-01-15T09:14:09.559Z,111.35
2023-01-15T09:16:57.750Z,111.16
2023-01-15T09:19:24.569Z,111.31
2023-01-15T09:21:51.420Z,111.06
2023-01-15T09:24:18.334Z,111.14
2023-01-15T09:26:45.110Z,110.20
2023-01-15T09:29:11.825Z,110.04
2023-01-15T09:31:38.671Z,109.94
2023-01-15T09:34:05.582Z,109.59
2023-01-15T09:36:35.103Z,109.23
2023-01-15T09:39:04.142Z,108.78
2023-01-15T09:42:04.151Z,107.97
2023-01-15T09:44:49.322Z,107.80
2023-01-15T09:47:19.628Z,108.18
2023-01-15T09:50:09.929Z,107.79
2023-01-15T09:53:02.719Z,107.51
2023-01-15T09:55:35.904Z,106.24
2023-01-15T09:58:05.600Z,105.67
2023-01-15T10:00:39.924Z,105.89
2023-01-15T10:03:29.778Z,105.00
2023-01-15T10:06:09.332Z,104.28
2023-01-15T10:08:42.608Z,103.47
2023-01-15T10:11:47.114Z,104.08
2023-01-15T10:14:20.837Z,101.95
2023-01-15T10:16:47.654Z,98.77
2023-01-15T10:19:14.427Z,96.87
2023-01-15T10:22:02.908Z,98.48
2023-01-15T10:24:39.599Z,96.47
2023-01-15T10:27:25.918Z,96.36
2023-01-15T10:30:21.393Z,95.84
2023-01-15T10:33:03.606Z,96.20
2023-01-15T10:35:36.628Z,97.13
2023-01-15T10:38:40.822Z,97.37
2023-01-15T10:41:31.759Z,96.26
2023-01-15T10:44:22.654Z,97.61
2023-01-15T10:46:57.664Z,97.94
2023-01-15T10:49:29.343Z,98.71
2023-01-15T10:52:25.325Z,99.66
2023-01-15T10:54:59.914Z,98.94
2023-01-15T10:58:08.956Z,100.40
2023-01-15T11:00:38.773Z,100.93
2023-01-15T11:03:15.480Z,100.52
2023-01-15T11:05:43.108Z,100.99
2023-01-15T11:08:58.662Z,100.90
2023-01-15T11:11:20.559Z,100.68
2023-01-15T11:14:14.056Z,101.40
2023-01-15T11:17:01.873Z,100.80
2023-01-15T11:19:38.405Z,99.35
2023-01-15T11:22:12.965Z,94.52
2023-01-15T11:25:09.101Z,96.10
2023-01-15T11:27:36.552Z,96.20
2023-01-15T11:30:24.803Z,94.62
2023-01-15T11:32:57.084Z,93.06
2023-01-15T11:35:24.204Z,93.30
2023-01-15T11:38:11.265Z,92.71
2023-01-15T11:40:38.048Z,90.70
2023-01-15T11:43:38.893Z,91.29
2023-01-15T11:46:24.428Z,91.07
2023-01-15T11:49:09.760Z,86.90
2023-01-15T11:51:47.297Z,80.72
2023-01-15T11:54:15.641Z,81.08
2023-01-15T11:56:45.545Z,79.62
2023-01-15T11:59:20.205Z,78.77
2023-01-15T12:01:57.465Z,78.40
2023-01-15T12:04:46.698Z,76.95
2023-01-15T12:07:14.603Z,76.74
2023-01-15T12:10:11.830Z,79.01
2023-01-15T12:13:00.717Z,78.85
2023-01-15T12:15:40.324Z,80.50
2023-01-15T12:18:22.553Z,79.68
2023-01-15T12:21:01.260Z,78.11
2023-01-15T12:23:47.406Z,77.60
2023-01-15T12:26:43.428Z,78.29
2023-01-15T12:29:22.666Z,78.00
2023-01-15T12:31:55.412Z,77.60
2023-01-15T12:34:34.429Z,79.62
2023-01-15T12:37:16.280Z,79.92
2023-01-15T12:40:09.940Z,79.59
2023-01-15T12:42:55.754Z,78.98
2023-01-15T12:45:28.144Z,78.48
2023-01-15T12:48:16.543Z,79.21
2023-01-15T12:50:49.298Z,80.03
2023-01-15T12:53:25.577Z,78.99
2023-01-15T12:56:00.306Z,79.33
2023-01-15T12:58:27.078Z,79.07
2023-01-15T13:01:05.081Z,78.73
2023-01-15T13:03:40.052Z,78.89
2023-01-15T13:06:09.281Z,77.89
2023-01-15T13:08:56.183Z,78.95
2023-01-15T13:11:22.968Z,78.34
2023-01-15T13:13:58.213Z,77.99
2023-01-15T13:16:54.935Z,78.92
2023-01-15T13:19:50.630Z,78.00
2023-01-15T13:22:24.335Z,77.94
2023-01-15T13:25:10.689Z,78.79
2023-01-15T13:28:03.216Z,79.39
2023-01-15T13:30:41.920Z,80.73
2023-01-15T13:33:29.751Z,89.76
2023-01-15T13:36:15.128Z,95.29
2023-01-15T13:38:45.721Z,111.51
2023-01-15T13:41:41.764Z,112.92
2023-01-15T13:44:37.402Z,113.90
2023-01-15T13:47:07.763Z,112.90
2023-01-15T13:49:48.035Z,111.01
2023-01-15T13:52:25.084Z,109.41
2023-01-15T13:54:53.837Z,108.06
2023-01-15T13:57:32.977Z,108.48
2023-01-15T13:59:59.963Z,110.72
2023-01-15T14:02:29.982Z,111.10
2023-01-15T14:04:57.735Z,113.26
2023-01-15T14:07:36.217Z,113.94
2023-01-15T14:10:10.298Z,114.80
2023-01-15T14:12:40.302Z,113.75
2023-01-15T14:15:19.730Z,113.66
2023-01-15T14:18:03.634Z,113.39
2023-01-15T14:20:37.927Z,112.26
2023-01-15T14:23:28.281Z,112.94
2023-01-15T14:26:00.008Z,111.53
2023-01-15T14:28:45.366Z,111.97
2023-01-15T14:32:00.212Z,110.91
2023-01-15T14:34:30.238Z,110.07
2023-01-15T14:37:22.806Z,110.61
2023-01-15T14:40:00.014Z,109.58
2023-01-15T14:42:58.633Z,109.23
2023-01-15T14:45:28.955Z,109.39
2023-01-15T14:48:01.423Z,109.39
2023-01-15T14:50:33.448Z,108.52
2023-01-15T14:53:03.700Z,108.27
2023-01-15T14:55:32.415Z,108.37
2023-01-15T14:58:04.485Z,107.56
2023-01-15T15:00:39.070Z,106.95
2023-01-15T15:03:37.253Z,106.44
2023-01-15T15:06:06.493Z,105.92
2023-01-15T15:08:35.229Z,104.21
2023-01-15T15:11:04.719Z,101.80
2023-01-15T15:13:36.112Z,102.51
2023-01-15T15:16:22.933Z,101.19
2023-01-15T15:19:19.467Z,99.41
2023-01-15T15:21:48.356Z,97.77
2023-01-15T15:24:23.225Z,95.94
2023-01-15T15:26:49.999Z,95.39
2023-01-15T15:29:20.257Z,94.62
2023-01-15T15:31:53.596Z,91.87
2023-01-15T15:34:32.209Z,91.16
2023-01-15T15:37:03.066Z,88.47
2023-01-15T15:39:39.821Z,90.08
2023-01-15T15:42:35.715Z,88.94
2023-01-15T15:45:40.871Z,89.74
2023-01-15T15:48:38.436Z,89.03
2023-01-15T15:51:22.367Z,86.82
2023-01-15T15:53:49.009Z,88.57
2023-01-15T15:56:16.492Z,87.73
2023-01-15T15:58:43.730Z,88.46
2023-01-15T16:01:12.844Z,88.26
2023-01-15T16:03:48.183Z,87.42
2023-01-15T16:06:27.802Z,89.05
2023-01-15T16:09:01.562Z,89.44
2023-01-15T16:11:28.839Z,87.79
2023-01-15T16:13:57.889Z,87.98
2023-01-15T16:16:27.302Z,86.41
2023-01-15T16:18:57.931Z,87.86
2023-01-15T16:21:27.953Z,86.72
2023-01-15T16:24:02.819Z,86.24
2023-01-15T16:26:40.367Z,86.70
2023-01-15T16:29:18.095Z,86.99
2023-01-15T16:31:44.938Z,87.09
2023-01-15T16:34:21.390Z,87.09
2023-01-15T16:36:48.520Z,85.66
2023-01-15T16:39:28.283Z,85.50
2023-01-15T16:41:57.804Z,86.37
2023-01-15T16:44:46.748Z,87.73
2023-01-15T16:47:28.867Z,89.21
2023-01-15T16:50:33.853Z,88.15
2023-01-15T16:53:02.659Z,89.38
2023-01-15T16:55:45.814Z,89.38
2023-01-15T16:58:12.742Z,90.03
2023-01-15T17:00:41.368Z,90.29
2023-01-15T17:03:13.535Z,90.03
2023-01-15T17:05:40.613Z,91.20
2023-01-15T17:08:42.252Z,91.30
2023-01-15T17:11:38.492Z,92.52
2023-01-15T17:14:26.765Z,93.56
2023-01-15T17:17:21.495Z,93.95
2023-01-15T17:19:53.055Z,95.06
2023-01-15T17:22:23.829Z,95.91
2023-01-15T17:24:53.762Z,97.32
2023-01-15T17:27:21.092Z,97.12
2023-01-15T17:29:47.881Z,99.15
2023-01-15T17:32:24.173Z,101.22
2023-01-15T17:34:51.240Z,103.74
2023-01-15T17:37:18.104Z,103.47
2023-01-15T17:39:44.771Z,103.09
2023-01-15T17:42:17.312Z,104.24
2023-01-15T17:44:44.831Z,105.24
2023-01-15T17:47:12.396Z,106.53
2023-01-15T17:49:39.304Z,107.33
2023-01-15T17:52:08.849Z,110.18
2023-01-15T17:54:54.529Z,110.79
2023-01-15T17:57:39.756Z,110.81
2023-01-15T18:00:25.638Z,112.47
2023-01-15T18:03:11.064Z,112.73
2023-01-15T18:05:38.239Z,113.10
2023-01-15T18:08:08.178Z,114.85
2023-01-15T18:10:35.066Z,115.29
2023-01-15T18:13:03.648Z,114.56
2023-01-15T18:15:30.521Z,115.46
2023-01-15T18:17:57.202Z,113.02
2023-01-15T18:20:23.955Z,114.03
2023-01-15T18:22:50.776Z,111.86
2023-01-15T18:25:17.515Z,112.19
2023-01-15T18:27:44.248Z,111.87
2023-01-15T18:30:16.154Z,112.22
2023-01-15T18:32:44.204Z,111.99
2023-01-15T18:35:12.041Z,111.51
2023-01-15T18:37:38.752Z,112.16
2023-01-15T18:40:06.129Z,112.34
2023-01-15T18:42:51.459Z,112.20
2023-01-15T18:45:37.080Z,111.80
2023-01-15T18:48:03.929Z,112.40
2023-01-15T18:50:30.680Z,111.93
2023-01-15T18:52:58.018Z,111.72
2023-01-15T18:55:28.162Z,111.87
2023-01-15T18:57:55.794Z,111.97
2023-01-15T19:00:25.014Z,112.26
2023-01-15T19:02:51.945Z,112.16
2023-01-15T19:05:18.727Z,112.05
2023-01-15T19:07:46.114Z,112.46
2023-01-15T19:10:14.419Z,112.64
2023-01-15T19:12:41.529Z,112.51
2023-01-15T19:15:29.775Z,112.13
2023-01-15T19:18:15.193Z,112.33
2023-01-15T19:20:41.944Z,112.19
2023-01-15T19:23:09.317Z,112.48
2023-01-15T19:25:39.271Z,112.29
2023-01-15T19:28:08.267Z,112.26
2023-01-15T19:30:38.231Z,112.61
2023-01-15T19:33:05.789Z,112.91
2023-01-15T19:35:33.064Z,113.25
2023-01-15T19:38:00.178Z,113.74
2023-01-15T19:40:27.132Z,113.93
2023-01-15T19:43:13.354Z,113.93
2023-01-15T19:46:04.062Z,114.08
2023-01-15T19:48:49.236Z,116.76
2023-01-15T19:51:16.026Z,113.71
2023-01-15T19:53:42.813Z,112.93
2023-01-15T19:56:09.570Z,113.51
2023-01-15T19:58:39.799Z,113.25
2023-01-15T20:01:12.968Z,113.00
2023-01-15T20:03:39.688Z,114.31
2023-01-15T20:06:07.765Z,115.06
2023-01-15T20:08:34.595Z,115.26
2023-01-15T20:11:01.340Z,115.44
2023-01-15T20:13:46.672Z,115.77
2023-01-15T20:16:18.268Z,115.92
2023-01-15T20:18:47.899Z,115.89
2023-01-15T20:21:15.633Z,116.08
2023-01-15T20:23:43.239Z,116.73
2023-01-15T20:26:12.560Z,117.42
2023-01-15T20:28:42.518Z,117.96
2023-01-15T20:31:17.493Z,118.56
2023-01-15T20:33:44.609Z,118.99
2023-01-15T20:36:11.420Z,118.99
2023-01-15T20:38:38.250Z,118.99
2023-01-15T20:41:27.871Z,118.99
2023-01-15T20:44:13.497Z,118.99
2023-01-15T20:46:40.319Z,118.99
2023-01-15T20:49:25.283Z,118.99
2023-01-15T20:51:52.742Z,118.99
2023-01-15T20:54:21.257Z,118.99
2023-01-15T20:56:48.113Z,118.99
2023-01-15T20:59:14.975Z,118.99
2023-01-15T21:01:41.864Z,118.99
2023-01-15T21:04:09.871Z,118.99
2023-01-15T21:06:36.982Z,118.99
2023-01-15T21:09:03.795Z,118.99
2023-01-15T21:11:30.544Z,118.99
2023-01-15T21:13:57.261Z,118.99
2023-01-15T21:16:24.231Z,118.99
2023-01-15T21:18:51.045Z,118.99
2023-01-15T21:21:19.093Z,118.99
2023-01-15T21:23:46.171Z,118.99
2023-01-15T21:26:14.428Z,118.99
2023-01-15T21:28:41.783Z,118.99
2023-01-15T21:31:10.235Z,118.99
2023-01-15T21:33:37.852Z,118.99
2023-01-15T21:36:13.137Z,118.99
2023-01-15T21:38:40.509Z,118.99
2023-01-15T21:41:16.341Z,118.99
2023-01-15T21:44:02.320Z,118.99
2023-01-15T21:46:29.463Z,118.99
2023-01-15T21:48:58.011Z,118.99
2023-01-15T21:51:26.641Z,118.99
2023-01-15T21:53:53.711Z,118.99
2023-01-15T21:56:20.500Z,118.99
2023-01-15T21:58:47.287Z,118.99
2023-01-15T22:01:16.187Z,118.99
2023-01-15T22:03:42.861Z,118.99
2023-01-15T22:06:10.346Z,118.99
2023-01-15T22:08:37.176Z,118.99
2023-01-15T22:11:08.317Z,118.99
2023-01-15T22:13:35.562Z,118.99
2023-01-15T22:16:05.651Z,118.99
2023-01-15T22:18:33.544Z,118.99
2023-01-15T22:21:02.944Z,118.99
2023-01-15T22:23:29.717Z,118.98
2023-01-15T22:25:57.108Z,118.99
2023-01-15T22:28:24.028Z,118.74
2023-01-15T22:30:50.879Z,118.57
2023-01-15T22:33:18.037Z,117.75
2023-01-15T22:35:44.823Z,117.84
2023-01-15T22:38:11.622Z,117.33
2023-01-15T22:40:38.403Z,116.39
2023-01-15T22:43:05.084Z,116.70
2023-01-15T22:45:31.815Z,116.42
2023-01-15T22:47:58.553Z,116.15
2023-01-15T22:50:25.209Z,116.19
2023-01-15T22:52:51.989Z,115.43
2023-01-15T22:55:18.688Z,115.30
2023-01-15T22:57:47.709Z,114.74
2023-01-15T23:00:15.512Z,115.17
2023-01-15T23:02:54.554Z,115.16
2023-01-15T23:05:23.401Z,113.65
2023-01-15T23:07:50.604Z,113.92
2023-01-15T23:10:17.426Z,114.19
2023-01-15T23:12:44.371Z,113.93
2023-01-15T23:15:13.587Z,114.15
2023-01-15T23:17:40.822Z,113.87
2023-01-15T23:20:09.550Z,113.54
2023-01-15T23:22:36.281Z,113.93
2023-01-15T23:25:03.724Z,113.19
2023-01-15T23:27:30.438Z,113.78
2023-01-15T23:29:57.257Z,114.11
2023-01-15T23:32:24.113Z,114.22
2023-01-15T23:34:50.969Z,113.63
2023-01-15T23:37:17.744Z,114.16
2023-01-15T23:39:44.482Z,114.19
2023-01-15T23:42:29.635Z,113.45
2023-01-15T23:45:15.091Z,113.10
2023-01-15T23:47:41.715Z,113.32
2023-01-15T23:50:09.039Z,112.68
2023-01-15T23:52:35.734Z,113.01
2023-01-15T23:55:02.386Z,112.06
2023-01-15T23:57:29.172Z,112.39
2023-01-15T23:59:55.877Z,112.39
